createdAt,value
2022-08-17T00:00:43.158Z,5.80
2022-08-17T00:03:30.576Z,6.50
2022-08-17T00:06:15.998Z,6.80
2022-08-17T00:08:56.702Z,7.10
2022-08-17T00:11:32.316Z,6.80
2022-08-17T00:14:04.925Z,6.70
2022-08-17T00:16:56.657Z,6.90
2022-08-17T00:19:26.371Z,7.00
2022-08-17T00:22:31.479Z,6.40
2022-08-17T00:24:45.596Z,6.10
2022-08-17T00:27:13.567Z,6.60
2022-08-17T00:29:42.318Z,6.20
2022-08-17T00:33:14.072Z,6.40
2022-08-17T00:34:58.347Z,6.10
2022-08-17T00:37:26.339Z,7.00
2022-08-17T00:39:54.398Z,6.50
2022-08-17T00:42:22.353Z,6.40
2022-08-17T00:44:50.336Z,6.80
2022-08-17T00:47:18.329Z,6.90
2022-08-17T00:49:46.271Z,6.40
2022-08-17T00:52:20.649Z,6.40
2022-08-17T00:54:52.411Z,5.70
2022-08-17T00:57:26.575Z,6.40
2022-08-17T01:00:03.190Z,6.30
2022-08-17T01:02:42.347Z,6.40
2022-08-17T01:05:17.213Z,6.30
2022-08-17T01:07:50.255Z,6.10
2022-08-17T01:10:58.995Z,6.90
2022-08-17T01:13:12.369Z,6.40
2022-08-17T01:15:48.894Z,6.10
2022-08-17T01:18:16.990Z,5.80
2022-08-17T01:20:52.308Z,5.50
2022-08-17T01:23:23.618Z,5.30
2022-08-17T01:25:55.107Z,5.10
2022-08-17T01:28:36.476Z,5.80
2022-08-17T01:31:14.743Z,5.50
2022-08-17T01:33:43.082Z,5.70
2022-08-17T01:36:11.198Z,5.30
2022-08-17T01:38:40.566Z,6.10
2022-08-17T01:41:13.806Z,5.30
2022-08-17T01:43:55.388Z,5.40
2022-08-17T01:46:27.252Z,5.20
2022-08-17T01:48:57.715Z,5.60
2022-08-17T01:54:06.971Z,5.10
2022-08-17T01:56:38.795Z,5.40
2022-08-17T01:59:06.780Z,5.30
2022-08-17T02:01:35.823Z,4.60
2022-08-17T02:04:06.745Z,4.70
2022-08-17T02:06:45.080Z,4.40
2022-08-17T02:09:26.343Z,5.90
2022-08-17T02:12:37.939Z,5.20
2022-08-17T02:14:48.677Z,4.60
2022-08-17T02:17:16.751Z,4.80
2022-08-17T02:19:44.560Z,4.80
2022-08-17T02:22:13.779Z,5.20
2022-08-17T02:25:00.929Z,5.20
2022-08-17T02:27:30.530Z,6.40
2022-08-17T02:29:58.484Z,6.50
2022-08-17T02:32:28.227Z,5.00
2022-08-17T02:35:01.019Z,5.40
2022-08-17T02:37:30.183Z,4.80
2022-08-17T02:39:59.636Z,4.70
2022-08-17T02:42:42.985Z,4.90
2022-08-17T02:45:17.667Z,4.30
2022-08-17T02:47:46.410Z,4.90
2022-08-17T02:50:17.856Z,4.80
2022-08-17T02:52:48.876Z,5.10
2022-08-17T02:55:33.456Z,4.90
2022-08-17T02:58:03.727Z,5.10
2022-08-17T03:00:36.770Z,4.80
2022-08-17T03:03:06.235Z,5.30
2022-08-17T03:05:36.487Z,4.70
2022-08-17T03:08:06.754Z,5.00
2022-08-17T03:10:39.770Z,5.50
2022-08-17T03:13:07.742Z,4.80
2022-08-17T03:15:35.737Z,4.70
2022-08-17T03:18:08.586Z,5.40
2022-08-17T03:20:47.102Z,5.50
2022-08-17T03:23:15.111Z,6.00
2022-08-17T03:25:46.729Z,6.00
2022-08-17T03:28:14.795Z,5.70
2022-08-17T03:30:42.795Z,5.00
2022-08-17T03:33:12.929Z,5.30
2022-08-17T03:35:41.326Z,5.20
2022-08-17T03:38:11.396Z,5.40
2022-08-17T03:40:56.792Z,5.40
2022-08-17T03:43:30.794Z,5.70
2022-08-17T03:46:34.372Z,6.00
2022-08-17T03:49:24.565Z,5.50
2022-08-17T03:52:12.907Z,6.10
2022-08-17T03:55:00.954Z,6.40
2022-08-17T03:57:30.436Z,6.30
2022-08-17T04:00:00.064Z,5.40
2022-08-17T04:02:31.603Z,5.20
2022-08-17T04:05:00.290Z,5.40
2022-08-17T04:07:31.269Z,5.00
2022-08-17T04:09:59.879Z,5.20
2022-08-17T04:12:42.148Z,5.20
2022-08-17T04:15:11.948Z,5.10
2022-08-17T04:17:40.649Z,5.10
2022-08-17T04:20:09.380Z,5.20
2022-08-17T04:22:37.262Z,4.80
2022-08-17T04:25:16.053Z,5.00
2022-08-17T04:27:44.074Z,6.40
2022-08-17T04:30:13.279Z,5.90
2022-08-17T04:33:09.726Z,6.60
2022-08-17T04:35:50.822Z,6.40
2022-08-17T04:38:21.639Z,5.20
2022-08-17T04:41:08.319Z,5.40
2022-08-17T04:43:38.854Z,4.80
2022-08-17T04:46:10.158Z,5.00
2022-08-17T04:48:42.764Z,4.60
2022-08-17T04:51:18.207Z,5.40
2022-08-17T04:53:54.057Z,4.90
2022-08-17T04:56:26.110Z,5.10
2022-08-17T04:58:58.795Z,5.00
2022-08-17T05:01:28.950Z,5.70
2022-08-17T05:04:18.378Z,5.10
2022-08-17T05:06:50.131Z,4.60
2022-08-17T05:09:18.548Z,5.00
2022-08-17T05:11:47.334Z,5.20
2022-08-17T05:14:15.354Z,4.70
2022-08-17T05:16:43.202Z,5.00
2022-08-17T05:19:10.992Z,5.10
2022-08-17T05:21:38.876Z,5.60
2022-08-17T05:24:16.718Z,4.80
2022-08-17T05:26:54.694Z,4.50
2022-08-17T05:29:23.278Z,5.10
2022-08-17T05:32:38.224Z,5.30
2022-08-17T05:35:00.707Z,4.80
2022-08-17T05:37:28.977Z,5.20
2022-08-17T05:39:56.931Z,5.60
2022-08-17T05:42:24.874Z,5.30
2022-08-17T05:44:52.886Z,4.70
2022-08-17T05:47:24.149Z,4.40
2022-08-17T05:49:53.901Z,4.70
2022-08-17T05:52:40.498Z,4.70
2022-08-17T05:55:18.212Z,4.70
2022-08-17T05:57:53.079Z,4.90
2022-08-17T06:00:30.575Z,5.20
2022-08-17T06:03:23.757Z,5.30
2022-08-17T06:06:16.075Z,5.00
2022-08-17T06:09:14.472Z,6.10
2022-08-17T06:11:42.247Z,4.90
2022-08-17T06:14:35.561Z,4.90
2022-08-17T06:17:08.825Z,4.20
2022-08-17T06:19:54.760Z,4.70
2022-08-17T06:22:28.254Z,4.10
2022-08-17T06:25:22.662Z,4.60
2022-08-17T06:27:56.791Z,4.50
2022-08-17T06:30:28.436Z,4.50
2022-08-17T06:33:07.945Z,4.50
2022-08-17T06:36:09.496Z,4.70
2022-08-17T06:39:22.863Z,4.30
2022-08-17T06:43:02.331Z,4.50
2022-08-17T06:45:09.893Z,4.80
2022-08-17T06:47:48.841Z,4.30
2022-08-17T06:50:44.342Z,4.80
2022-08-17T06:53:12.201Z,4.20
2022-08-17T06:56:00.004Z,4.50
2022-08-17T06:58:31.464Z,4.10
2022-08-17T07:01:16.317Z,4.50
2022-08-17T07:04:11.866Z,4.30
2022-08-17T07:06:44.718Z,4.40
2022-08-17T07:09:23.362Z,4.20
2022-08-17T07:11:57.246Z,4.40
2022-08-17T07:14:54.412Z,4.60
2022-08-17T07:17:46.955Z,4.90
2022-08-17T07:20:15.978Z,4.40
2022-08-17T07:22:59.815Z,6.60
2022-08-17T07:25:30.940Z,4.90
2022-08-17T07:28:06.030Z,4.70
2022-08-17T07:30:47.587Z,4.20
2022-08-17T07:33:23.696Z,4.20
2022-08-17T07:35:52.191Z,4.70
2022-08-17T07:38:29.712Z,4.60
2022-08-17T07:41:04.941Z,4.50
2022-08-17T07:43:42.094Z,5.00
2022-08-17T07:46:47.850Z,5.00
2022-08-17T07:49:16.987Z,5.60
2022-08-17T07:51:45.795Z,5.00
2022-08-17T07:54:18.544Z,5.40
2022-08-17T07:56:52.681Z,4.80
2022-08-17T07:59:28.619Z,5.10
2022-08-17T08:02:15.055Z,4.80
2022-08-17T08:05:01.339Z,5.80
2022-08-17T08:07:35.614Z,4.80
2022-08-17T08:10:25.580Z,4.80
2022-08-17T08:13:14.028Z,5.90
2022-08-17T08:15:53.593Z,5.40
2022-08-17T08:18:54.967Z,5.40
2022-08-17T08:21:29.181Z,6.00
2022-08-17T08:24:06.236Z,6.10
2022-08-17T08:26:46.489Z,7.40
2022-08-17T08:29:32.431Z,6.70
2022-08-17T08:32:21.866Z,5.30
2022-08-17T08:35:08.962Z,6.10
2022-08-17T08:38:02.111Z,6.70
2022-08-17T08:41:00.949Z,7.30
2022-08-17T08:43:38.290Z,9.30
2022-08-17T08:46:25.960Z,6.00
2022-08-17T08:49:10.161Z,6.00
2022-08-17T08:51:52.277Z,5.90
2022-08-17T08:54:42.781Z,5.90
2022-08-17T09:00:10.145Z,6.10
2022-08-17T09:02:40.722Z,5.80
2022-08-17T09:05:16.274Z,11.20
2022-08-17T09:07:59.340Z,7.10
2022-08-17T09:10:34.990Z,6.80
2022-08-17T09:13:41.358Z,8.50
2022-08-17T09:16:15.386Z,5.80
2022-08-17T09:19:03.007Z,6.60
2022-08-17T09:24:37.874Z,7.50
2022-08-17T09:27:09.406Z,7.00
2022-08-17T09:29:43.662Z,6.50
2022-08-17T09:32:25.012Z,6.60
2022-08-17T09:34:57.398Z,6.20
2022-08-17T09:37:37.644Z,6.50
2022-08-17T09:43:00.932Z,5.80
2022-08-17T09:45:38.088Z,6.20
2022-08-17T09:48:20.852Z,5.90
2022-08-17T09:51:27.076Z,6.20
2022-08-17T09:54:09.502Z,6.00
2022-08-17T09:57:29.184Z,5.70
2022-08-17T10:00:16.965Z,6.30
2022-08-17T10:03:04.569Z,6.80
2022-08-17T10:05:48.048Z,6.20
2022-08-17T10:08:32.152Z,6.90
2022-08-17T10:11:11.682Z,6.00
2022-08-17T10:14:36.720Z,6.10
2022-08-17T10:17:25.259Z,7.20
2022-08-17T10:20:06.787Z,6.30
2022-08-17T10:23:07.831Z,5.30
2022-08-17T10:26:02.762Z,5.90
2022-08-17T10:28:39.912Z,6.10
2022-08-17T10:31:33.667Z,5.80
2022-08-17T10:34:40.961Z,5.90
2022-08-17T10:37:19.608Z,6.50
2022-08-17T10:40:07.188Z,6.00
2022-08-17T10:42:50.256Z,6.70
2022-08-17T10:45:45.557Z,6.00
2022-08-17T10:48:27.027Z,6.30
2022-08-17T10:51:08.783Z,5.50
2022-08-17T10:53:37.830Z,6.10
2022-08-17T10:56:14.318Z,6.20
2022-08-17T10:58:57.411Z,6.50
2022-08-17T11:01:34.997Z,6.60
2022-08-17T11:04:11.810Z,5.90
2022-08-17T11:06:42.115Z,6.50
2022-08-17T11:12:25.645Z,6.00
2022-08-17T11:15:00.493Z,6.60
2022-08-17T11:17:43.246Z,6.00
2022-08-17T11:20:30.573Z,5.80
2022-08-17T11:22:59.141Z,6.00
2022-08-17T11:25:47.356Z,6.30
2022-08-17T11:28:48.891Z,6.10
2022-08-17T11:31:38.904Z,6.20
2022-08-17T11:34:19.780Z,5.80
2022-08-17T11:37:02.101Z,5.80
2022-08-17T11:39:51.393Z,5.70
2022-08-17T11:42:31.225Z,5.60
2022-08-17T11:45:32.383Z,6.50
2022-08-17T11:48:42.639Z,6.20
2022-08-17T11:51:36.040Z,6.30
2022-08-17T11:54:33.431Z,6.10
2022-08-17T11:57:27.573Z,6.50
2022-08-17T11:59:58.766Z,5.70
2022-08-17T12:02:34.467Z,6.10
2022-08-17T12:05:15.491Z,5.80
2022-08-17T12:07:59.428Z,8.10
2022-08-17T12:10:34.331Z,5.90
2022-08-17T12:13:15.853Z,7.40
2022-08-17T12:15:49.841Z,6.90
2022-08-17T12:18:25.136Z,6.50
2022-08-17T12:21:09.146Z,7.70
2022-08-17T12:23:59.356Z,6.10
2022-08-17T12:26:31.860Z,6.20
2022-08-17T12:29:06.447Z,6.80
2022-08-17T12:31:44.697Z,6.40
2022-08-17T12:34:19.103Z,6.80
2022-08-17T12:36:53.070Z,6.20
2022-08-17T12:39:24.981Z,6.50
2022-08-17T12:42:01.980Z,6.30
2022-08-17T12:44:34.118Z,7.40
2022-08-17T12:47:22.870Z,7.40
2022-08-17T12:49:53.731Z,6.50
2022-08-17T12:52:28.431Z,5.60
2022-08-17T12:55:02.112Z,5.60
2022-08-17T12:57:38.919Z,6.20
2022-08-17T13:00:17.795Z,6.10
2022-08-17T13:02:58.868Z,5.30
2022-08-17T13:05:34.114Z,6.00
2022-08-17T13:08:15.376Z,5.50
2022-08-17T13:10:53.392Z,6.20
2022-08-17T13:13:28.285Z,5.70
2022-08-17T13:16:27.627Z,5.70
2022-08-17T13:19:08.055Z,6.20
2022-08-17T13:21:38.127Z,6.20
2022-08-17T13:24:19.803Z,5.70
2022-08-17T13:26:54.261Z,6.00
2022-08-17T13:29:45.100Z,6.00
2022-08-17T13:32:39.857Z,6.40
2022-08-17T13:35:39.783Z,5.60
2022-08-17T13:38:10.280Z,6.80
2022-08-17T13:40:45.234Z,7.20
2022-08-17T13:43:48.500Z,5.40
2022-08-17T13:46:19.637Z,5.90
2022-08-17T13:49:04.756Z,5.80
2022-08-17T13:51:45.319Z,8.30
2022-08-17T13:54:26.651Z,5.90
2022-08-17T13:56:57.888Z,6.40
2022-08-17T13:59:53.326Z,5.90
2022-08-17T14:02:22.962Z,6.20
2022-08-17T14:04:56.855Z,6.60
2022-08-17T14:07:32.473Z,6.60
2022-08-17T14:10:02.599Z,6.00
2022-08-17T14:15:01.103Z,7.00
2022-08-17T14:17:35.052Z,6.00
2022-08-17T14:20:12.470Z,6.70
2022-08-17T14:22:45.106Z,6.60
2022-08-17T14:25:16.886Z,7.00
2022-08-17T14:27:52.829Z,7.00
2022-08-17T14:30:29.117Z,7.40
2022-08-17T14:32:59.227Z,6.00
2022-08-17T14:35:28.307Z,6.20
2022-08-17T14:37:56.867Z,6.40
2022-08-17T14:40:25.718Z,6.60
2022-08-17T14:42:56.038Z,6.10
2022-08-17T14:45:27.391Z,5.80
2022-08-17T14:48:04.643Z,6.50
2022-08-17T14:50:35.341Z,5.80
2022-08-17T14:53:06.890Z,6.60
2022-08-17T14:55:37.015Z,6.90
2022-08-17T15:00:33.601Z,6.40
2022-08-17T15:03:02.572Z,6.50
2022-08-17T15:05:36.671Z,6.60
2022-08-17T15:08:06.187Z,6.30
2022-08-17T15:10:34.642Z,6.10
2022-08-17T15:13:02.789Z,6.10
2022-08-17T15:15:31.194Z,6.50
2022-08-17T15:18:00.385Z,6.40
2022-08-17T15:20:29.814Z,6.30
2022-08-17T15:22:59.330Z,7.40
2022-08-17T15:25:29.975Z,6.40
2022-08-17T15:27:58.793Z,6.10
2022-08-17T15:30:27.796Z,6.90
2022-08-17T15:33:06.390Z,6.70
2022-08-17T15:35:39.294Z,6.70
2022-08-17T15:38:12.080Z,7.00
2022-08-17T15:40:44.415Z,6.50
2022-08-17T15:43:24.759Z,6.40
2022-08-17T15:46:01.783Z,6.30
2022-08-17T15:48:41.790Z,6.40
2022-08-17T15:51:24.151Z,6.40
2022-08-17T15:53:57.638Z,6.00
2022-08-17T15:56:27.004Z,6.30
2022-08-17T15:58:55.437Z,6.20
2022-08-17T16:01:40.512Z,6.80
2022-08-17T16:04:26.910Z,6.30
2022-08-17T16:07:07.040Z,6.40
2022-08-17T16:09:38.955Z,6.30
2022-08-17T16:12:16.833Z,6.50
2022-08-17T16:14:46.152Z,6.10
2022-08-17T16:17:38.502Z,6.40
2022-08-17T16:20:03.167Z,6.30
2022-08-17T16:22:40.124Z,6.00
2022-08-17T16:25:17.436Z,6.50
2022-08-17T16:27:48.210Z,6.90
2022-08-17T16:30:17.713Z,7.10
2022-08-17T16:32:50.694Z,7.50
2022-08-17T16:35:22.147Z,6.00
2022-08-17T16:37:54.360Z,6.90
2022-08-17T16:40:26.025Z,6.80
2022-08-17T16:42:55.471Z,9.70
2022-08-17T16:45:31.450Z,7.10
2022-08-17T16:48:01.742Z,6.90
2022-08-17T16:50:29.853Z,6.30
2022-08-17T16:53:17.465Z,7.90
2022-08-17T16:55:47.102Z,7.40
2022-08-17T16:58:15.935Z,9.30
2022-08-17T17:00:46.665Z,6.90
2022-08-17T17:03:19.615Z,7.10
2022-08-17T17:05:51.465Z,9.30
2022-08-17T17:08:40.719Z,7.40
2022-08-17T17:11:21.645Z,7.60
2022-08-17T17:14:05.240Z,8.20
2022-08-17T17:16:50.556Z,7.20
2022-08-17T17:19:35.140Z,6.90
2022-08-17T17:22:15.834Z,7.20
2022-08-17T17:27:44.714Z,7.20
2022-08-17T17:30:48.665Z,7.10
2022-08-17T17:33:24.863Z,8.80
2022-08-17T17:35:59.357Z,9.30
2022-08-17T17:38:37.710Z,7.90
2022-08-17T17:41:26.318Z,8.80
2022-08-17T17:44:03.037Z,9.30
2022-08-17T17:46:37.995Z,13.20
2022-08-17T17:49:06.724Z,9.70
2022-08-17T17:52:06.607Z,10.60
2022-08-17T17:54:39.500Z,8.90
2022-08-17T17:57:21.406Z,9.60
2022-08-17T17:59:52.053Z,8.70
2022-08-17T18:02:52.193Z,9.70
2022-08-17T18:05:48.785Z,9.60
2022-08-17T18:08:33.901Z,9.50
2022-08-17T18:11:08.531Z,9.90
2022-08-17T18:13:53.566Z,8.90
2022-08-17T18:16:22.653Z,9.80
2022-08-17T18:18:52.749Z,9.70
2022-08-17T18:21:24.286Z,11.80
2022-08-17T18:24:01.379Z,10.40
2022-08-17T18:26:57.677Z,9.90
2022-08-17T18:29:31.644Z,10.10
2022-08-17T18:32:18.239Z,10.90
2022-08-17T18:34:49.491Z,11.40
2022-08-17T18:37:55.488Z,10.70
2022-08-17T18:40:27.517Z,18.30
2022-08-17T18:43:02.888Z,11.70
2022-08-17T18:45:38.535Z,11.80
2022-08-17T18:48:22.767Z,11.40
2022-08-17T18:50:53.467Z,11.30
2022-08-17T18:53:34.861Z,9.60
2022-08-17T18:56:35.051Z,9.90
2022-08-17T18:59:27.116Z,9.10
2022-08-17T19:02:15.299Z,11.20
2022-08-17T19:05:08.171Z,8.50
2022-08-17T19:07:40.902Z,10.10
2022-08-17T19:10:23.974Z,8.60
2022-08-17T19:13:14.089Z,8.70
2022-08-17T19:18:50.932Z,8.60
2022-08-17T19:21:27.226Z,9.40
2022-08-17T19:24:19.678Z,11.10
2022-08-17T19:26:56.851Z,11.10
2022-08-17T19:30:07.819Z,12.90
2022-08-17T19:32:36.656Z,10.00
2022-08-17T19:35:08.297Z,9.40
2022-08-17T19:37:47.516Z,9.20
2022-08-17T19:40:53.700Z,8.90
2022-08-17T19:43:47.303Z,10.50
2022-08-17T19:46:48.641Z,10.20
2022-08-17T19:49:50.485Z,10.00
2022-08-17T19:52:27.203Z,9.80
2022-08-17T19:55:09.017Z,11.90
2022-08-17T19:58:07.868Z,9.90
2022-08-17T20:00:42.975Z,10.50
2022-08-17T20:03:34.239Z,12.70
2022-08-17T20:06:12.928Z,10.30
2022-08-17T20:08:54.040Z,10.30
2022-08-17T20:11:31.484Z,10.10
2022-08-17T20:14:28.712Z,9.70
2022-08-17T20:17:01.920Z,10.00
2022-08-17T20:20:01.566Z,9.60
2022-08-17T20:22:50.421Z,10.10
2022-08-17T20:25:31.604Z,9.90
2022-08-17T20:28:24.170Z,9.80
2022-08-17T20:30:52.581Z,9.70
2022-08-17T20:33:36.764Z,10.10
2022-08-17T20:36:22.741Z,9.70
2022-08-17T20:38:56.683Z,9.60
2022-08-17T20:41:29.905Z,10.00
2022-08-17T20:43:58.441Z,10.00
2022-08-17T20:46:41.942Z,10.30
2022-08-17T20:49:22.767Z,10.10
2022-08-17T20:52:02.930Z,10.20
2022-08-17T20:54:57.829Z,9.80
2022-08-17T20:57:34.408Z,10.80
2022-08-17T21:00:19.071Z,10.70
2022-08-17T21:02:50.093Z,9.90
2022-08-17T21:05:38.616Z,10.40
2022-08-17T21:08:16.711Z,9.70
2022-08-17T21:10:47.094Z,9.90
2022-08-17T21:16:22.408Z,9.00
2022-08-17T21:19:03.176Z,8.60
2022-08-17T21:21:58.200Z,8.90
2022-08-17T21:24:55.418Z,8.60
2022-08-17T21:27:37.503Z,9.10
2022-08-17T21:30:06.628Z,8.30
2022-08-17T21:32:42.176Z,8.40
2022-08-17T21:35:19.428Z,9.10
2022-08-17T21:37:50.576Z,9.00
2022-08-17T21:40:25.402Z,8.90
2022-08-17T21:42:58.196Z,8.80
2022-08-17T21:45:36.112Z,8.20
2022-08-17T21:48:19.777Z,8.10
2022-08-17T21:51:18.113Z,8.60
2022-08-17T21:53:56.189Z,8.60
2022-08-17T21:56:33.044Z,9.50
2022-08-17T21:59:04.774Z,8.80
2022-08-17T22:01:37.464Z,8.90
2022-08-17T22:04:17.625Z,8.80
2022-08-17T22:06:52.349Z,9.10
2022-08-17T22:09:32.326Z,8.80
2022-08-17T22:12:07.215Z,9.10
2022-08-17T22:14:52.960Z,9.00
2022-08-17T22:17:29.812Z,8.40
2022-08-17T22:20:09.440Z,8.70
2022-08-17T22:23:03.974Z,9.30
2022-08-17T22:25:36.210Z,8.20
2022-08-17T22:28:09.593Z,8.40
2022-08-17T22:31:01.299Z,8.50
2022-08-17T22:33:43.923Z,8.00
2022-08-17T22:36:30.239Z,8.30
2022-08-17T22:39:22.405Z,8.80
2022-08-17T22:41:54.868Z,8.90
2022-08-17T22:44:23.374Z,8.70
2022-08-17T22:46:55.586Z,8.70
2022-08-17T22:49:38.781Z,8.70
2022-08-17T22:52:32.040Z,8.70
2022-08-17T22:55:35.035Z,8.40
2022-08-17T22:58:29.611Z,8.20
2022-08-17T23:01:31.621Z,8.10
2022-08-17T23:04:06.812Z,8.50
2022-08-17T23:06:37.723Z,8.90
2022-08-17T23:09:07.580Z,8.00
2022-08-17T23:11:49.889Z,8.90
2022-08-17T23:14:22.612Z,8.50
2022-08-17T23:16:51.092Z,8.60
2022-08-17T23:19:21.319Z,8.30
2022-08-17T23:21:52.641Z,9.40
2022-08-17T23:24:24.744Z,9.10
2022-08-17T23:26:54.346Z,8.10
2022-08-17T23:29:22.580Z,8.40
2022-08-17T23:31:51.899Z,8.50
2022-08-17T23:34:19.894Z,8.70
2022-08-17T23:36:52.358Z,7.80
2022-08-17T23:39:24.631Z,8.70
2022-08-17T23:42:00.973Z,9.10
2022-08-17T23:44:28.927Z,9.00
2022-08-17T23:46:57.525Z,8.20
2022-08-17T23:49:25.695Z,8.20
2022-08-17T23:51:55.306Z,8.80
2022-08-17T23:54:26.973Z,7.80
2022-08-17T23:56:54.909Z,8.20
2022-08-17T23:59:23.730Z,8.50
